Time;durP1;ratioP1;P1;durP2;ratioP2;P2;SDS_P1;SDS_P2;PMS_P1;PMS_P2;Temp;Humidity;BMP_temperature;BMP_pressure;BME280_temperature;BME280_humidity;BME280_pressure;Samples;Min_cycle;Max_cycle;Signal;HPM_P1;HPM_P2
2022/05/18 00:01:07;;;;;;;759.53;711.05;;;20.00;99.90;;;;;;5042588;28;20566;-68
2022/05/18 00:03:36;;;;;;;778.17;728.78;;;20.00;99.90;;;;;;5047165;28;20199;-69
2022/05/18 00:06:04;;;;;;;743.28;696.25;;;20.00;99.90;;;;;;5046176;28;20309;-68
2022/05/18 00:08:36;;;;;;;740.13;693.92;;;19.90;99.90;;;;;;5056503;28;20609;-69
2022/05/18 00:11:07;;;;;;;797.45;746.85;;;19.90;99.90;;;;;;5049454;28;20186;-69
2022/05/18 00:13:36;;;;;;;788.47;738.85;;;19.90;99.90;;;;;;5036241;28;20200;-67
2022/05/18 00:16:03;;;;;;;807.92;756.33;;;19.90;99.90;;;;;;5036148;28;20186;-70
2022/05/18 00:18:28;;;;;;;845.90;792.58;;;19.80;99.90;;;;;;5043645;28;20218;-70
2022/05/18 00:20:54;;;;;;;873.22;817.83;;;19.70;99.90;;;;;;5034627;28;20190;-70
2022/05/18 00:23:20;;;;;;;884.78;828.72;;;19.70;99.90;;;;;;5057175;28;20223;-71
2022/05/18 00:25:45;;;;;;;865.58;809.92;;;19.70;99.90;;;;;;5042324;28;20186;-70
2022/05/18 00:28:11;;;;;;;891.40;834.85;;;19.70;99.90;;;;;;5045301;28;20640;-70
2022/05/18 00:30:38;;;;;;;929.75;869.10;;;19.70;99.90;;;;;;5034923;28;20644;-70
2022/05/18 00:33:06;;;;;;;961.80;898.63;;;19.70;99.90;;;;;;5055007;28;20190;-70
2022/05/18 00:35:34;;;;;;;916.05;856.20;;;19.60;99.90;;;;;;5051213;28;20197;-70
2022/05/18 00:38:00;;;;;;;933.35;871.25;;;19.60;99.90;;;;;;5035334;28;20214;-69
2022/05/18 00:40:26;;;;;;;944.30;882.60;;;19.60;99.90;;;;;;5055538;28;20231;-69
2022/05/18 00:42:52;;;;;;;940.25;878.95;;;19.60;99.90;;;;;;5037102;28;20187;-70
2022/05/18 00:45:18;;;;;;;948.92;886.78;;;19.50;99.90;;;;;;5034895;28;20190;-70
2022/05/18 00:47:44;;;;;;;946.42;884.30;;;19.50;99.90;;;;;;5053506;28;20193;-69
2022/05/18 00:50:16;;;;;;;974.53;909.50;;;19.50;99.90;;;;;;5049907;28;20669;-70
2022/05/18 00:52:58;;;;;;;980.22;914.17;;;19.40;99.90;;;;;;5044180;28;20183;-70
2022/05/18 00:55:26;;;;;;;976.38;911.38;;;19.40;99.90;;;;;;5036044;28;20206;-70
2022/05/18 00:58:02;;;;;;;963.30;898.60;;;19.40;99.90;;;;;;5034945;28;20557;-70
2022/05/18 01:00:28;;;;;;;967.03;902.63;;;19.40;99.90;;;;;;5035576;28;20201;-72
2022/05/18 01:03:04;;;;;;;986.72;919.70;;;19.40;99.90;;;;;;5033760;28;20198;-72
2022/05/18 01:05:34;;;;;;;985.05;917.83;;;19.40;99.90;;;;;;5035254;28;20174;-73
2022/05/18 01:08:01;;;;;;;987.65;920.90;;;19.40;99.90;;;;;;5045718;28;20617;-70
2022/05/18 01:10:28;;;;;;;975.28;909.53;;;19.40;99.90;;;;;;5056599;28;20630;-70
2022/05/18 01:12:56;;;;;;;983.58;916.63;;;19.50;99.90;;;;;;5043173;28;20300;-70
2022/05/18 01:15:22;;;;;;;981.67;915.65;;;19.60;99.90;;;;;;5035015;28;20191;-69
2022/05/18 01:17:53;;;;;;;990.25;923.28;;;19.70;99.90;;;;;;5047223;28;20297;-70
2022/05/18 01:20:25;;;;;;;976.60;911.28;;;19.60;99.90;;;;;;5040578;28;20194;-70
2022/05/18 01:23:10;;;;;;;966.35;901.67;;;19.60;99.90;;;;;;5045500;28;20578;-69
2022/05/18 01:25:44;;;;;;;975.55;910.20;;;19.70;99.90;;;;;;5050114;28;20557;-69
2022/05/18 01:28:11;;;;;;;958.85;895.50;;;19.70;99.90;;;;;;5034531;28;20579;-70
2022/05/18 01:30:48;;;;;;;960.63;897.33;;;19.70;99.90;;;;;;5034538;28;20233;-70
2022/05/18 01:33:16;;;;;;;966.47;902.15;;;19.70;99.90;;;;;;5034901;28;20199;-69
2022/05/18 01:35:44;;;;;;;970.97;905.90;;;19.70;99.90;;;;;;5034743;28;20194;-70
2022/05/18 01:38:17;;;;;;;991.80;925.25;;;19.70;99.90;;;;;;5034548;28;20215;-70
2022/05/18 01:41:11;;;;;;;956.63;893.33;;;19.70;99.90;;;;;;5050819;28;20186;-69
2022/05/18 01:44:01;;;;;;;932.30;871.90;;;19.80;99.90;;;;;;5034577;28;20183;-70
2022/05/18 01:46:30;;;;;;;863.92;810.38;;;19.80;99.90;;;;;;5041122;28;20522;-70
2022/05/18 01:48:56;;;;;;;870.03;816.20;;;19.90;99.90;;;;;;5034597;28;20198;-70
2022/05/18 01:51:37;;;;;;;875.95;821.85;;;19.90;99.90;;;;;;5034389;28;20549;-69
2022/05/18 01:54:04;;;;;;;836.20;785.42;;;20.20;99.90;;;;;;5034357;28;20188;-69
2022/05/18 01:56:30;;;;;;;844.00;792.70;;;20.30;99.90;;;;;;5034054;28;20178;-69
2022/05/18 01:58:56;;;;;;;860.53;807.90;;;20.40;99.90;;;;;;5040840;28;20184;-69
2022/05/18 02:01:21;;;;;;;844.47;793.53;;;20.30;99.90;;;;;;5041830;28;20272;-70
2022/05/18 02:03:48;;;;;;;859.47;806.53;;;20.10;99.90;;;;;;5044231;28;20282;-70
2022/05/18 02:06:14;;;;;;;861.50;808.75;;;20.10;99.90;;;;;;5034441;28;20194;-69
2022/05/18 02:08:42;;;;;;;848.72;797.15;;;20.10;99.90;;;;;;5033907;28;20186;-70
2022/05/18 02:11:12;;;;;;;841.25;789.92;;;20.10;99.90;;;;;;5034174;28;20186;-70
2022/05/18 02:13:38;;;;;;;837.78;787.33;;;20.00;99.90;;;;;;5033076;28;20183;-70
2022/05/18 02:16:04;;;;;;;848.60;797.13;;;20.00;99.90;;;;;;5033932;28;20187;-70
2022/05/18 02:18:30;;;;;;;839.78;788.97;;;20.00;99.90;;;;;;5062213;28;20296;-70
2022/05/18 02:20:55;;;;;;;840.90;790.13;;;20.10;99.90;;;;;;5032751;28;20613;-70
2022/05/18 02:23:21;;;;;;;852.55;800.92;;;20.20;99.90;;;;;;5049361;28;20336;-70
2022/05/18 02:25:47;;;;;;;851.03;799.00;;;20.10;99.90;;;;;;5033832;28;20643;-71
2022/05/18 02:28:13;;;;;;;846.03;794.72;;;20.10;99.90;;;;;;5033472;28;20527;-69
2022/05/18 02:30:38;;;;;;;842.03;791.13;;;20.20;99.90;;;;;;5048953;28;20195;-71
2022/05/18 02:33:04;;;;;;;866.30;813.50;;;20.20;99.90;;;;;;5032124;28;20189;-69
2022/05/18 02:35:30;;;;;;;865.08;811.72;;;20.10;99.90;;;;;;5033641;28;20186;-71
2022/05/18 02:37:56;;;;;;;872.92;819.28;;;20.20;99.90;;;;;;5033239;28;20567;-69
2022/05/18 02:40:22;;;;;;;883.45;828.47;;;20.20;99.90;;;;;;5068839;28;20193;-71
2022/05/18 02:42:48;;;;;;;872.67;818.47;;;20.10;99.90;;;;;;5036422;28;20553;-70
2022/05/18 02:45:14;;;;;;;869.90;816.17;;;20.30;99.90;;;;;;5042072;28;20280;-69
2022/05/18 02:47:39;;;;;;;873.85;819.60;;;20.50;99.90;;;;;;5036364;28;20273;-70
2022/05/18 02:50:06;;;;;;;880.40;825.35;;;20.70;99.90;;;;;;5032306;28;20187;-70
2022/05/18 02:52:32;;;;;;;861.38;807.60;;;20.60;99.90;;;;;;5033556;28;20193;-69
2022/05/18 02:57:43;;;;;;;959.55;891.53;;;20.30;99.90;;;;;;5033508;28;20705;-71
2022/05/18 03:00:09;;;;;;;1073.65;995.38;;;20.30;99.90;;;;;;5044836;28;20190;-70
2022/05/18 03:02:35;;;;;;;1059.75;983.90;;;20.20;99.90;;;;;;5032750;28;20201;-71
2022/05/18 03:05:01;;;;;;;1061.63;985.60;;;20.10;99.90;;;;;;5034174;28;20709;-71
2022/05/18 03:07:26;;;;;;;1064.30;987.95;;;20.00;99.90;;;;;;5035537;28;20190;-71
2022/05/18 03:09:52;;;;;;;1066.40;990.15;;;20.00;99.90;;;;;;5032033;28;20613;-70
2022/05/18 03:12:18;;;;;;;1065.38;989.30;;;19.90;99.90;;;;;;5031924;28;20244;-70
2022/05/18 03:14:43;;;;;;;1069.57;993.28;;;19.90;99.90;;;;;;5032561;28;20248;-71
2022/05/18 03:17:09;;;;;;;1065.07;989.20;;;19.90;99.90;;;;;;5040858;28;20582;-70
2022/05/18 03:19:34;;;;;;;1071.43;994.60;;;19.90;99.90;;;;;;5044210;28;20205;-70
2022/05/18 03:24:44;;;;;;;1044.43;971.10;;;19.80;99.90;;;;;;5041999;28;20198;-70
2022/05/18 03:27:10;;;;;;;1042.45;969.28;;;19.80;99.90;;;;;;5040532;28;20568;-70
2022/05/18 03:29:36;;;;;;;1040.65;967.75;;;19.90;99.90;;;;;;5042047;28;20273;-70
2022/05/18 03:32:02;;;;;;;1035.05;962.70;;;19.90;99.90;;;;;;5034052;28;20273;-70
2022/05/18 03:34:28;;;;;;;1037.32;965.05;;;19.80;99.90;;;;;;5069079;28;20170;-70
2022/05/18 03:36:54;;;;;;;1044.68;971.20;;;19.80;99.90;;;;;;5036598;28;20214;-70
2022/05/18 03:39:19;;;;;;;1032.63;960.33;;;19.80;99.90;;;;;;5037330;28;20547;-71
2022/05/18 03:41:45;;;;;;;1035.05;962.38;;;19.80;99.90;;;;;;5037069;28;20215;-70
2022/05/18 03:44:11;;;;;;;1046.00;972.17;;;19.90;99.90;;;;;;5036795;28;20202;-71
2022/05/18 03:46:37;;;;;;;1038.28;965.42;;;19.80;99.90;;;;;;5036905;28;20189;-71
2022/05/18 03:49:04;;;;;;;1039.63;966.33;;;19.90;99.90;;;;;;5035401;28;20237;-71
2022/05/18 03:51:30;;;;;;;1029.10;957.30;;;20.00;99.90;;;;;;5044230;28;20677;-71
2022/05/18 03:53:56;;;;;;;1037.05;963.85;;;20.00;99.90;;;;;;5038154;28;20286;-71
2022/05/18 03:56:24;;;;;;;1037.05;964.67;;;20.10;99.90;;;;;;5035354;28;20269;-71
2022/05/18 03:58:50;;;;;;;1037.82;964.75;;;20.20;99.90;;;;;;5042967;28;20190;-71
2022/05/18 04:01:16;;;;;;;1035.95;963.25;;;20.20;99.90;;;;;;5049133;28;20201;-71
2022/05/18 04:03:46;;;;;;;1024.68;953.40;;;20.20;99.90;;;;;;5035043;28;20226;-70
2022/05/18 04:06:13;;;;;;;1030.15;957.90;;;20.20;99.90;;;;;;5036071;28;20178;-70
2022/05/18 04:08:40;;;;;;;1031.40;959.47;;;20.30;99.90;;;;;;5035800;28;20199;-71
2022/05/18 04:11:06;;;;;;;1028.68;956.60;;;20.30;99.90;;;;;;5068217;28;20233;-71
2022/05/18 04:13:32;;;;;;;1033.35;961.15;;;20.40;99.90;;;;;;5036351;28;20270;-71
2022/05/18 04:15:58;;;;;;;1031.13;958.80;;;20.40;99.90;;;;;;5036341;28;20269;-70
2022/05/18 04:18:24;;;;;;;1026.45;955.33;;;20.50;99.90;;;;;;5043715;28;20205;-70
2022/05/18 04:20:52;;;;;;;1034.13;961.47;;;20.50;99.90;;;;;;5036436;28;20270;-71
2022/05/18 04:23:18;;;;;;;1032.82;960.25;;;20.50;99.90;;;;;;5035823;28;20198;-71
2022/05/18 04:25:44;;;;;;;1029.95;958.28;;;20.50;99.90;;;;;;5036216;28;20190;-70
2022/05/18 04:28:14;;;;;;;1034.18;962.03;;;20.50;99.90;;;;;;5036011;28;20313;-71
2022/05/18 04:30:43;;;;;;;1024.18;952.13;;;20.60;99.90;;;;;;5043649;28;20178;-71
2022/05/18 04:33:09;;;;;;;1018.50;948.70;;;20.70;99.90;;;;;;5035823;28;20190;-70
2022/05/18 04:35:35;;;;;;;1016.85;946.03;;;20.70;99.90;;;;;;5035762;28;20706;-71
2022/05/18 04:38:01;;;;;;;1014.70;944.50;;;20.80;99.90;;;;;;5033094;28;20210;-71
2022/05/18 04:40:26;;;;;;;1003.08;934.58;;;21.00;99.90;;;;;;5044590;28;20195;-71
2022/05/18 04:42:52;;;;;;;1012.30;942.72;;;21.00;99.90;;;;;;5034593;28;20273;-71
2022/05/18 04:45:21;;;;;;;1023.65;952.20;;;21.10;99.90;;;;;;5035119;28;20186;-71
2022/05/18 04:47:48;;;;;;;1002.95;934.30;;;21.10;99.90;;;;;;5035894;28;20548;-70
2022/05/18 04:50:13;;;;;;;997.05;929.15;;;21.00;99.90;;;;;;5034124;28;20190;-70
2022/05/18 04:52:39;;;;;;;1007.47;938.20;;;21.10;99.90;;;;;;5036113;28;20636;-71
2022/05/18 04:55:06;;;;;;;1009.90;940.60;;;21.20;99.90;;;;;;5035129;28;20694;-70
2022/05/18 04:57:32;;;;;;;953.63;890.47;;;21.20;99.90;;;;;;5067283;28;20210;-70
2022/05/18 04:59:58;;;;;;;964.22;900.70;;;21.20;99.90;;;;;;5049232;28;20192;-71
2022/05/18 05:02:24;;;;;;;960.80;896.85;;;21.20;99.90;;;;;;5042476;28;20289;-72
2022/05/18 05:04:49;;;;;;;971.22;906.75;;;21.20;99.90;;;;;;5053341;28;20190;-71
2022/05/18 05:07:15;;;;;;;972.63;908.22;;;21.10;99.90;;;;;;5052785;28;20200;-70
2022/05/18 05:09:41;;;;;;;971.47;906.90;;;21.20;99.90;;;;;;5069804;28;20187;-71
2022/05/18 05:12:08;;;;;;;980.60;915.10;;;21.10;99.90;;;;;;5047928;28;20187;-71
2022/05/18 05:14:40;;;;;;;974.90;909.80;;;21.10;99.90;;;;;;5034054;28;20202;-70
2022/05/18 05:17:07;;;;;;;1008.45;939.90;;;21.30;99.90;;;;;;5044122;28;20220;-70
2022/05/18 05:19:36;;;;;;;1006.67;937.72;;;21.30;99.90;;;;;;5039167;28;20722;-70
2022/05/18 05:22:02;;;;;;;984.10;917.72;;;21.40;99.90;;;;;;5037042;28;20193;-71
2022/05/18 05:24:28;;;;;;;1002.20;933.33;;;21.30;99.90;;;;;;5055070;28;20642;-71
2022/05/18 05:26:53;;;;;;;1004.22;935.70;;;21.30;99.90;;;;;;5036857;28;20191;-71
2022/05/18 05:29:20;;;;;;;1008.28;939.22;;;21.40;99.90;;;;;;5033728;28;20658;-71
2022/05/18 05:31:46;;;;;;;1013.53;944.38;;;21.20;99.90;;;;;;5017220;28;20613;-71
2022/05/18 05:34:12;;;;;;;1013.67;944.00;;;21.30;99.90;;;;;;5034694;28;20187;-71
2022/05/18 05:36:38;;;;;;;1019.10;948.13;;;21.40;99.90;;;;;;5034718;28;20191;-71
2022/05/18 05:39:04;;;;;;;1019.45;948.03;;;21.70;99.90;;;;;;5033377;28;20190;-71
2022/05/18 05:41:29;;;;;;;1019.67;948.35;;;21.60;99.90;;;;;;5066672;28;20187;-71
2022/05/18 05:43:56;;;;;;;1013.40;943.13;;;21.60;99.90;;;;;;5033298;28;20190;-71
2022/05/18 05:46:22;;;;;;;1023.20;952.13;;;21.60;99.90;;;;;;5033286;28;20270;-71
2022/05/18 05:48:47;;;;;;;1034.18;961.08;;;21.60;99.90;;;;;;5033383;28;20269;-71
2022/05/18 05:51:15;;;;;;;1024.45;953.17;;;21.50;99.90;;;;;;5066234;28;20248;-71
2022/05/18 05:53:43;;;;;;;1028.65;956.63;;;21.60;99.90;;;;;;5034260;28;20218;-70
2022/05/18 05:56:11;;;;;;;1029.32;957.45;;;21.60;99.90;;;;;;5040920;28;20701;-71
2022/05/18 05:58:37;;;;;;;1033.88;961.90;;;21.70;99.90;;;;;;5038328;28;20241;-71
2022/05/18 06:01:05;;;;;;;1032.13;960.17;;;21.90;99.90;;;;;;5034531;28;20198;-71
2022/05/18 06:03:31;;;;;;;1009.97;940.30;;;22.00;99.90;;;;;;5034336;28;20252;-72
2022/05/18 06:05:57;;;;;;;1018.95;948.95;;;22.30;99.90;;;;;;5034357;28;20218;-70
2022/05/18 06:08:24;;;;;;;1017.95;948.05;;;22.30;99.90;;;;;;5033063;28;20222;-71
2022/05/18 06:10:52;;;;;;;1022.58;951.22;;;22.30;99.90;;;;;;5038265;28;20198;-70
2022/05/18 06:13:18;;;;;;;1016.65;946.95;;;22.40;99.90;;;;;;5039636;28;20195;-70
2022/05/18 06:15:44;;;;;;;1021.42;951.13;;;22.50;99.90;;;;;;5032651;28;20199;-70
2022/05/18 06:18:10;;;;;;;1011.45;942.10;;;22.80;99.90;;;;;;5033759;28;20289;-71
2022/05/18 06:20:36;;;;;;;1008.58;940.20;;;22.60;99.90;;;;;;5032828;28;20194;-70
2022/05/18 06:23:06;;;;;;;1016.00;945.92;;;22.70;99.90;;;;;;5034166;28;20636;-70
2022/05/18 06:25:32;;;;;;;1003.95;934.92;;;22.60;99.90;;;;;;5042347;28;20206;-70
2022/05/18 06:27:58;;;;;;;1002.42;933.88;;;22.60;99.90;;;;;;5049391;28;20182;-71
2022/05/18 06:30:24;;;;;;;1010.50;941.35;;;22.80;99.90;;;;;;5031154;28;20655;-70
2022/05/18 06:32:50;;;;;;;998.22;930.17;;;22.80;99.90;;;;;;5053267;28;20530;-71
2022/05/18 06:35:15;;;;;;;997.10;929.15;;;22.80;99.90;;;;;;5034000;28;20175;-71
2022/05/18 06:37:41;;;;;;;999.60;931.35;;;22.90;99.90;;;;;;5033137;28;20210;-70
2022/05/18 06:40:08;;;;;;;998.80;931.05;;;23.00;99.90;;;;;;5035156;28;20186;-70
2022/05/18 06:42:34;;;;;;;987.90;921.42;;;23.10;99.90;;;;;;5044415;28;20181;-70
2022/05/18 06:45:03;;;;;;;989.83;923.38;;;23.20;99.90;;;;;;5039828;28;20694;-70
2022/05/18 06:47:29;;;;;;;973.45;908.67;;;23.10;99.90;;;;;;5032287;28;20233;-71
2022/05/18 06:49:55;;;;;;;969.17;904.60;;;23.40;99.90;;;;;;5033719;28;20212;-70
2022/05/18 06:52:21;;;;;;;946.20;882.83;;;23.40;99.90;;;;;;5032152;28;20262;-70
2022/05/18 06:54:47;;;;;;;955.13;891.58;;;23.60;99.90;;;;;;5033712;28;20259;-70
2022/05/18 06:57:13;;;;;;;936.28;874.53;;;23.70;99.90;;;;;;5033426;28;20655;-70
2022/05/18 06:59:39;;;;;;;919.25;859.22;;;23.80;99.90;;;;;;5042142;28;20261;-70
2022/05/18 07:02:05;;;;;;;921.63;861.60;;;23.80;99.90;;;;;;5032154;28;20647;-70
2022/05/18 07:04:31;;;;;;;919.15;859.40;;;24.10;99.90;;;;;;5033533;28;20178;-71
2022/05/18 07:06:57;;;;;;;914.17;854.65;;;24.50;99.90;;;;;;5033025;28;20182;-70
2022/05/18 07:09:24;;;;;;;900.90;843.00;;;24.80;99.90;;;;;;5043454;28;20190;-71
2022/05/18 07:11:50;;;;;;;875.72;819.45;;;24.90;99.90;;;;;;5038006;28;20178;-71
2022/05/18 07:14:21;;;;;;;881.10;824.70;;;24.80;99.90;;;;;;5032960;28;20281;-70
2022/05/18 07:16:47;;;;;;;870.50;814.72;;;24.80;99.90;;;;;;5046392;28;20218;-70
2022/05/18 07:19:13;;;;;;;859.67;804.75;;;25.10;99.90;;;;;;5034777;28;20221;-70
2022/05/18 07:21:40;;;;;;;835.78;782.88;;;25.80;99.90;;;;;;5031595;28;20194;-70
2022/05/18 07:24:06;;;;;;;826.33;774.42;;;26.40;99.90;;;;;;5032269;28;20190;-73
2022/05/18 07:26:32;;;;;;;798.45;749.33;;;26.70;99.90;;;;;;5041487;28;20201;-71
2022/05/18 07:28:58;;;;;;;800.33;751.30;;;26.40;99.90;;;;;;5033149;28;20178;-70
2022/05/18 07:31:25;;;;;;;775.40;728.17;;;26.20;99.90;;;;;;5036355;28;20674;-70
2022/05/18 07:33:51;;;;;;;781.78;733.72;;;26.30;99.90;;;;;;5032943;28;20186;-71
2022/05/18 07:36:18;;;;;;;778.33;731.05;;;26.30;99.90;;;;;;5039959;28;20188;-72
2022/05/18 07:38:44;;;;;;;779.35;732.42;;;26.20;99.90;;;;;;5047107;28;20300;-73
2022/05/18 07:41:13;;;;;;;793.03;744.25;;;26.40;99.90;;;;;;5033019;28;20248;-72
2022/05/18 07:43:42;;;;;;;765.20;719.10;;;26.50;99.90;;;;;;5032843;28;20213;-72
2022/05/18 07:46:09;;;;;;;766.97;720.35;;;27.00;99.90;;;;;;5032562;28;20547;-72
2022/05/18 07:48:39;;;;;;;788.50;740.45;;;27.00;99.90;;;;;;5031549;28;20190;-72
2022/05/18 07:51:05;;;;;;;782.58;735.63;;;27.10;99.90;;;;;;5035563;28;20188;-73
2022/05/18 07:53:31;;;;;;;756.67;711.13;;;26.70;99.90;;;;;;5044407;28;20273;-73
2022/05/18 07:55:57;;;;;;;759.63;714.30;;;26.70;99.90;;;;;;5032811;28;20720;-72
2022/05/18 07:58:23;;;;;;;740.25;696.70;;;27.20;99.90;;;;;;5034487;28;20234;-70
2022/05/18 08:00:49;;;;;;;721.40;679.90;;;27.20;99.90;;;;;;5042886;28;20182;-70
2022/05/18 08:03:16;;;;;;;745.53;701.50;;;27.30;99.90;;;;;;5034693;28;20292;-70
2022/05/18 08:05:43;;;;;;;699.65;659.30;;;27.30;99.90;;;;;;5040405;28;20182;-70
2022/05/18 08:08:12;;;;;;;685.92;647.40;;;27.00;99.90;;;;;;5033046;28;20178;-73
2022/05/18 08:16:11;;;;;;;723.42;681.65;;;27.10;99.90;;;;;;5032367;28;20239;-72
2022/05/18 08:18:37;;;;;;;744.33;700.83;;;27.90;99.90;;;;;;5032703;28;20293;-72
2022/05/18 08:21:03;;;;;;;745.28;701.10;;;28.70;99.90;;;;;;5034829;28;20221;-73
2022/05/18 08:23:29;;;;;;;764.60;718.42;;;29.60;99.90;;;;;;5035661;28;21659;-70
2022/05/18 08:25:56;;;;;;;740.83;696.50;;;30.80;99.90;;;;;;5041659;28;20189;-69
2022/05/18 08:28:23;;;;;;;733.90;690.80;;;31.40;99.90;;;;;;5035979;28;20660;-69
2022/05/18 08:30:49;;;;;;;737.20;693.03;;;32.00;99.90;;;;;;5067932;28;20197;-63
2022/05/18 08:33:14;;;;;;;720.33;677.88;;;32.50;99.90;;;;;;5034972;28;20182;-64
2022/05/18 08:35:43;;;;;;;688.95;648.65;;;32.40;99.90;;;;;;5037225;28;20197;-62
2022/05/18 08:38:10;;;;;;;709.08;667.47;;;32.60;99.90;;;;;;5054911;28;20230;-64
2022/05/18 08:40:51;;;;;;;707.13;665.63;;;33.30;99.90;;;;;;5053234;28;20195;-64
2022/05/18 08:43:24;;;;;;;684.05;644.35;;;33.10;99.90;;;;;;5049107;28;20653;-65
2022/05/18 08:46:09;;;;;;;700.13;659.95;;;32.80;99.90;;;;;;5051074;28;20693;-64
2022/05/18 08:48:51;;;;;;;655.38;618.00;;;33.30;99.90;;;;;;5044112;28;20182;-64
2022/05/18 08:51:29;;;;;;;676.63;637.72;;;34.10;99.90;;;;;;5035223;28;20198;-65
2022/05/18 08:54:15;;;;;;;654.60;617.33;;;34.50;99.90;;;;;;5036032;28;20266;-64
2022/05/18 08:56:43;;;;;;;624.75;589.58;;;35.40;99.90;;;;;;5045178;28;20185;-65
2022/05/18 08:59:39;;;;;;;685.03;645.33;;;35.20;99.90;;;;;;5045581;28;20698;-65
2022/05/18 09:02:30;;;;;;;661.78;623.50;;;35.10;99.90;;;;;;5035253;28;20202;-64
2022/05/18 09:05:04;;;;;;;661.97;624.22;;;34.60;99.90;;;;;;5034141;28;20178;-64
2022/05/18 09:07:45;;;;;;;631.92;596.85;;;34.50;99.90;;;;;;5054519;28;20205;-64
2022/05/18 09:10:33;;;;;;;672.90;633.92;;;33.80;99.90;;;;;;5047420;28;20173;-64
2022/05/18 09:12:59;;;;;;;633.42;598.08;;;31.80;99.90;;;;;;5035146;28;20185;-64
2022/05/18 09:15:50;;;;;;;634.50;599.80;;;30.70;99.90;;;;;;5067807;28;20530;-65
2022/05/18 09:18:22;;;;;;;615.05;581.72;;;30.20;99.90;;;;;;5042964;28;20591;-65
2022/05/18 09:21:08;;;;;;;645.65;610.28;;;30.20;99.90;;;;;;5038595;28;20662;-64
2022/05/18 09:23:40;;;;;;;621.63;588.35;;;30.00;99.90;;;;;;5035700;28;20224;-64
2022/05/18 09:26:25;;;;;;;688.45;649.92;;;29.40;99.90;;;;;;5047133;28;20185;-63
2022/05/18 09:29:05;;;;;;;642.40;607.08;;;29.40;99.90;;;;;;5052607;28;20245;-64
2022/05/18 09:31:52;;;;;;;668.67;631.58;;;29.10;99.90;;;;;;5037026;28;20655;-64
2022/05/18 09:34:31;;;;;;;647.90;612.55;;;29.10;99.90;;;;;;5034733;28;20643;-64
2022/05/18 09:37:02;;;;;;;677.15;639.78;;;29.10;99.90;;;;;;5034629;28;20240;-64
2022/05/18 09:39:35;;;;;;;722.25;681.08;;;29.10;99.90;;;;;;5048169;28;20189;-64
2022/05/18 09:42:22;;;;;;;678.53;641.13;;;28.70;99.90;;;;;;5038588;28;20170;-60
2022/05/18 09:45:12;;;;;;;684.83;646.60;;;28.40;99.90;;;;;;5041506;28;20182;-61
2022/05/18 09:47:45;;;;;;;702.75;662.63;;;28.20;99.90;;;;;;5033513;28;20213;-62
2022/05/18 09:50:12;;;;;;;684.17;645.78;;;28.20;99.90;;;;;;5034503;28;20273;-63
2022/05/18 09:52:40;;;;;;;705.60;665.80;;;27.80;99.90;;;;;;5051708;28;20240;-63
2022/05/18 09:55:10;;;;;;;720.83;680.10;;;27.60;99.90;;;;;;5034298;28;20273;-62
2022/05/18 09:57:59;;;;;;;713.55;672.88;;;27.00;99.90;;;;;;5043359;28;20252;-63
2022/05/18 10:00:27;;;;;;;721.33;679.28;;;26.90;99.90;;;;;;5033329;28;20722;-65
2022/05/18 10:08:44;;;;;;;701.00;661.58;;;26.60;99.90;;;;;;5053374;28;20248;-63
2022/05/18 10:11:16;;;;;;;718.92;677.63;;;26.40;99.90;;;;;;5044420;28;20192;-64
2022/05/18 10:14:06;;;;;;;733.65;691.05;;;26.40;99.90;;;;;;5053921;28;20638;-63
2022/05/18 10:16:48;;;;;;;710.97;671.05;;;26.70;99.90;;;;;;5048973;28;20182;-65
2022/05/18 10:19:23;;;;;;;735.47;693.45;;;26.60;99.90;;;;;;5043413;28;20201;-63
2022/05/18 10:21:55;;;;;;;746.05;702.15;;;26.70;99.90;;;;;;5038258;28;20212;-64
2022/05/18 10:24:33;;;;;;;730.08;688.75;;;26.70;99.90;;;;;;5055747;28;20643;-64
2022/05/18 10:27:20;;;;;;;694.85;656.35;;;27.00;99.90;;;;;;5035668;28;20182;-64
2022/05/18 10:30:14;;;;;;;717.60;676.05;;;26.40;99.90;;;;;;5033778;28;20184;-64
2022/05/18 10:33:18;;;;;;;718.58;677.13;;;26.50;99.90;;;;;;5033397;28;20194;-64
2022/05/18 10:35:52;;;;;;;724.05;682.42;;;26.40;99.90;;;;;;5045875;28;20190;-65
2022/05/18 10:38:24;;;;;;;724.50;683.35;;;26.30;99.90;;;;;;5041400;28;20209;-65
2022/05/18 10:41:05;;;;;;;725.55;683.65;;;26.20;99.90;;;;;;5033240;28;20221;-64
2022/05/18 10:43:54;;;;;;;716.38;675.63;;;26.30;99.90;;;;;;5046350;28;20183;-64
2022/05/18 10:46:32;;;;;;;710.85;670.72;;;26.20;99.90;;;;;;5033311;28;20178;-64
2022/05/18 10:49:13;;;;;;;721.05;680.30;;;26.10;99.90;;;;;;5036147;28;20299;-70
2022/05/18 10:51:38;;;;;;;713.00;672.38;;;26.20;99.90;;;;;;5034670;28;20186;-68
2022/05/18 10:54:18;;;;;;;723.40;682.45;;;26.20;99.90;;;;;;5037603;28;20179;-67
2022/05/18 10:56:45;;;;;;;695.40;656.40;;;26.30;99.90;;;;;;5032820;28;20187;-66
2022/05/18 10:59:29;;;;;;;813.28;762.85;;;26.50;99.90;;;;;;5033180;28;20549;-67
2022/05/18 11:02:12;;;;;;;725.90;684.65;;;26.60;99.90;;;;;;5033535;28;20199;-66
2022/05/18 11:04:37;;;;;;;733.17;691.13;;;26.40;99.90;;;;;;5049140;28;20186;-68
2022/05/18 11:07:04;;;;;;;766.13;721.25;;;26.50;99.90;;;;;;5042626;28;20181;-66
2022/05/18 11:09:32;;;;;;;746.72;703.08;;;26.40;99.90;;;;;;5038423;28;20562;-67
2022/05/18 11:12:09;;;;;;;744.38;701.20;;;26.40;99.90;;;;;;5033118;28;20636;-67
2022/05/18 11:14:48;;;;;;;771.92;726.20;;;26.40;99.90;;;;;;5040844;28;20178;-67
2022/05/18 11:17:48;;;;;;;759.78;714.75;;;26.30;99.90;;;;;;5033956;28;20214;-66
2022/05/18 11:20:34;;;;;;;711.15;670.75;;;26.00;99.90;;;;;;5045230;28;20197;-66
2022/05/18 11:23:45;;;;;;;712.92;672.72;;;26.00;99.90;;;;;;5031522;28;20189;-66
2022/05/18 11:26:11;;;;;;;709.35;668.90;;;26.30;99.90;;;;;;5039838;28;20209;-66
2022/05/18 11:28:44;;;;;;;766.90;721.83;;;26.40;99.90;;;;;;5036489;28;20229;-66
2022/05/18 11:31:31;;;;;;;731.75;689.45;;;26.50;99.90;;;;;;5033914;28;20189;-67
2022/05/18 11:34:18;;;;;;;743.30;700.30;;;26.50;99.90;;;;;;5032792;28;20268;-67
2022/05/18 11:37:03;;;;;;;733.95;690.78;;;26.50;99.90;;;;;;5032724;28;20190;-65
2022/05/18 11:40:02;;;;;;;748.63;705.38;;;26.50;99.90;;;;;;5032650;28;20535;-67
2022/05/18 11:42:51;;;;;;;768.13;722.97;;;26.60;99.90;;;;;;5033267;28;20643;-67
2022/05/18 11:45:21;;;;;;;718.42;677.20;;;26.70;99.90;;;;;;5038759;28;20193;-66
2022/05/18 11:48:11;;;;;;;760.75;716.05;;;26.40;99.90;;;;;;5033315;28;20193;-67
2022/05/18 11:51:02;;;;;;;754.95;711.08;;;26.70;99.90;;;;;;5033162;28;20657;-66
2022/05/18 11:53:40;;;;;;;748.38;704.33;;;26.80;99.90;;;;;;5034545;28;20186;-66
2022/05/18 11:56:28;;;;;;;779.38;732.75;;;26.90;99.90;;;;;;5036880;28;20178;-66
2022/05/18 12:02:01;;;;;;;725.50;684.03;;;26.80;99.90;;;;;;5037526;28;21586;-66
2022/05/18 12:04:43;;;;;;;741.13;697.72;;;26.40;99.90;;;;;;5052774;28;20177;-67
2022/05/18 12:07:22;;;;;;;723.55;682.08;;;26.20;99.90;;;;;;5036232;28;20200;-67
2022/05/18 12:10:23;;;;;;;756.20;711.55;;;26.20;99.90;;;;;;5036317;28;20217;-67
2022/05/18 12:13:03;;;;;;;755.00;710.42;;;26.40;99.90;;;;;;5035990;28;20174;-65
2022/05/18 12:15:46;;;;;;;781.00;734.78;;;26.70;99.90;;;;;;5039827;28;20177;-67
2022/05/18 12:18:42;;;;;;;743.75;700.15;;;27.00;99.90;;;;;;5049285;28;20721;-70
2022/05/18 12:21:16;;;;;;;776.75;730.63;;;27.10;99.90;;;;;;5036960;28;20651;-72
2022/05/18 12:23:48;;;;;;;756.88;712.13;;;27.20;99.90;;;;;;5040850;28;20174;-67
2022/05/18 12:26:15;;;;;;;779.90;733.35;;;26.90;99.90;;;;;;5039706;28;20189;-67
2022/05/18 12:28:43;;;;;;;787.63;740.15;;;26.90;99.90;;;;;;5036043;28;20190;-67
2022/05/18 12:31:09;;;;;;;762.83;717.50;;;27.00;99.90;;;;;;5035126;28;20548;-66
2022/05/18 12:33:45;;;;;;;759.25;714.30;;;27.20;99.90;;;;;;5041064;28;20221;-66
2022/05/18 12:36:16;;;;;;;782.65;736.03;;;27.30;99.90;;;;;;5049589;28;20197;-68
2022/05/18 12:38:57;;;;;;;745.88;701.50;;;27.30;99.90;;;;;;5035767;28;20208;-67
2022/05/18 12:41:31;;;;;;;732.92;690.45;;;27.30;99.90;;;;;;5047067;28;20189;-68
2022/05/18 12:44:25;;;;;;;742.30;698.90;;;27.30;99.90;;;;;;5035859;28;20178;-65